sensor_id;sensor_type;location;lat;lon;timestamp;pressure;altitude;pressure_sealevel;temperature;humidity
64889;BME280;51386;53.082;8.816;2024-01-07T00:00:07;101868.09;;;3.60;62.08
64889;BME280;51386;53.082;8.816;2024-01-07T00:02:36;101871.84;;;3.56;62.13
64889;BME280;51386;53.082;8.816;2024-01-07T00:05:05;101876.50;;;3.51;62.32
64889;BME280;51386;53.082;8.816;2024-01-07T00:07:34;101882.84;;;3.47;62.51
64889;BME280;51386;53.082;8.816;2024-01-07T00:10:02;101895.84;;;3.47;62.72
64889;BME280;51386;53.082;8.816;2024-01-07T00:12:31;101896.78;;;3.46;62.74
64889;BME280;51386;53.082;8.816;2024-01-07T00:15:00;101900.31;;;3.45;62.72
64889;BME280;51386;53.082;8.816;2024-01-07T00:17:28;101902.13;;;3.45;63.08
64889;BME280;51386;53.082;8.816;2024-01-07T00:19:56;101895.84;;;3.47;62.78
64889;BME280;51386;53.082;8.816;2024-01-07T00:22:25;101896.78;;;3.46;62.77
64889;BME280;51386;53.082;8.816;2024-01-07T00:24:53;101903.66;;;3.47;62.34
64889;BME280;51386;53.082;8.816;2024-01-07T00:27:22;101904.59;;;3.46;62.64
64889;BME280;51386;53.082;8.816;2024-01-07T00:29:50;101902.72;;;3.48;62.52
64889;BME280;51386;53.082;8.816;2024-01-07T00:32:18;101913.88;;;3.50;62.45
64889;BME280;51386;53.082;8.816;2024-01-07T00:34:47;101914.06;;;3.47;62.32
64889;BME280;51386;53.082;8.816;2024-01-07T00:37:19;101920.22;;;3.46;62.35
64889;BME280;51386;53.082;8.816;2024-01-07T00:39:47;101918.22;;;3.50;62.74
64889;BME280;51386;53.082;8.816;2024-01-07T00:42:16;101920.75;;;3.51;62.29
64889;BME280;51386;53.082;8.816;2024-01-07T00:44:44;101923.44;;;3.50;62.34
64889;BME280;51386;53.082;8.816;2024-01-07T00:47:13;101927.59;;;3.52;62.62
64889;BME280;51386;53.082;8.816;2024-01-07T00:49:41;101933.09;;;3.48;61.99
64889;BME280;51386;53.082;8.816;2024-01-07T00:52:09;101936.31;;;3.38;62.04
64889;BME280;51386;53.082;8.816;2024-01-07T00:54:38;101932.56;;;3.30;62.33
64889;BME280;51386;53.082;8.816;2024-01-07T00:57:07;101936.25;;;3.26;62.83
64889;BME280;51386;53.082;8.816;2024-01-07T00:59:38;101942.22;;;3.28;62.96
64889;BME280;51386;53.082;8.816;2024-01-07T01:02:06;101944.06;;;3.26;62.52
64889;BME280;51386;53.082;8.816;2024-01-07T01:04:39;101961.34;;;3.27;62.75
64889;BME280;51386;53.082;8.816;2024-01-07T01:07:08;101960.31;;;3.29;62.86
64889;BME280;51386;53.082;8.816;2024-01-07T01:09:36;101957.81;;;3.28;62.96
64889;BME280;51386;53.082;8.816;2024-01-07T01:12:05;101962.25;;;3.26;62.81
64889;BME280;51386;53.082;8.816;2024-01-07T01:14:33;101971.19;;;3.22;63.26
64889;BME280;51386;53.082;8.816;2024-01-07T01:17:02;101970.75;;;3.15;62.96
64889;BME280;51386;53.082;8.816;2024-01-07T01:19:30;101967.78;;;3.07;63.46
64889;BME280;51386;53.082;8.816;2024-01-07T01:21:59;101967.34;;;3.01;64.17
64889;BME280;51386;53.082;8.816;2024-01-07T01:24:28;101967.66;;;2.96;64.59
64889;BME280;51386;53.082;8.816;2024-01-07T01:26:56;101973.88;;;2.94;65.15
64889;BME280;51386;53.082;8.816;2024-01-07T01:29:25;101970.53;;;2.92;65.08
64889;BME280;51386;53.082;8.816;2024-01-07T01:31:53;101977.66;;;2.88;65.73
64889;BME280;51386;53.082;8.816;2024-01-07T01:34:21;101982.97;;;2.87;66.04
64889;BME280;51386;53.082;8.816;2024-01-07T01:36:50;101976.31;;;2.83;66.37
64889;BME280;51386;53.082;8.816;2024-01-07T01:39:18;101990.59;;;2.76;67.01
64889;BME280;51386;53.082;8.816;2024-01-07T01:41:47;101993.44;;;2.71;67.15
64889;BME280;51386;53.082;8.816;2024-01-07T01:44:15;101997.09;;;2.68;67.46
64889;BME280;51386;53.082;8.816;2024-01-07T01:46:46;101997.91;;;2.69;67.75
64889;BME280;51386;53.082;8.816;2024-01-07T01:49:15;101998.75;;;2.69;67.74
64889;BME280;51386;53.082;8.816;2024-01-07T01:51:44;102008.31;;;2.69;67.57
64889;BME280;51386;53.082;8.816;2024-01-07T01:54:12;102005.72;;;2.69;67.83
64889;BME280;51386;53.082;8.816;2024-01-07T01:56:41;102012.69;;;2.68;67.98
64889;BME280;51386;53.082;8.816;2024-01-07T01:59:11;102014.53;;;2.66;67.91
64889;BME280;51386;53.082;8.816;2024-01-07T02:01:40;102009.31;;;2.66;68.02
64889;BME280;51386;53.082;8.816;2024-01-07T02:04:09;102016.22;;;2.67;67.73
64889;BME280;51386;53.082;8.816;2024-01-07T02:06:38;102016.84;;;2.71;68.35
64889;BME280;51386;53.082;8.816;2024-01-07T02:09:06;102017.50;;;2.74;67.98
64889;BME280;51386;53.082;8.816;2024-01-07T02:11:35;102021.50;;;2.80;68.33
64889;BME280;51386;53.082;8.816;2024-01-07T02:14:03;102025.69;;;2.83;68.11
64889;BME280;51386;53.082;8.816;2024-01-07T02:16:32;102023.63;;;2.88;68.26
64889;BME280;51386;53.082;8.816;2024-01-07T02:19:01;102033.75;;;2.92;67.47
64889;BME280;51386;53.082;8.816;2024-01-07T02:21:29;102036.25;;;2.94;66.90
64889;BME280;51386;53.082;8.816;2024-01-07T02:23:57;102035.34;;;2.95;66.50
64889;BME280;51386;53.082;8.816;2024-01-07T02:26:26;102035.34;;;2.95;66.00
64889;BME280;51386;53.082;8.816;2024-01-07T02:28:56;102037.19;;;2.93;65.33
64889;BME280;51386;53.082;8.816;2024-01-07T02:31:24;102046.56;;;2.95;65.24
64889;BME280;51386;53.082;8.816;2024-01-07T02:33:52;102041.34;;;2.95;65.27
64889;BME280;51386;53.082;8.816;2024-01-07T02:36:21;102038.75;;;2.95;64.51
64889;BME280;51386;53.082;8.816;2024-01-07T02:38:49;102044.63;;;2.99;64.65
64889;BME280;51386;53.082;8.816;2024-01-07T02:41:18;102041.06;;;3.00;64.20
64889;BME280;51386;53.082;8.816;2024-01-07T02:43:47;102046.28;;;3.00;63.97
64889;BME280;51386;53.082;8.816;2024-01-07T02:46:16;102048.13;;;2.98;63.46
64889;BME280;51386;53.082;8.816;2024-01-07T02:48:44;102053.34;;;2.98;63.47
64889;BME280;51386;53.082;8.816;2024-01-07T02:51:13;102059.38;;;2.98;62.99
64889;BME280;51386;53.082;8.816;2024-01-07T02:53:41;102066.34;;;2.98;62.95
64889;BME280;51386;53.082;8.816;2024-01-07T02:56:09;102071.53;;;2.98;62.61
64889;BME280;51386;53.082;8.816;2024-01-07T02:58:38;102076.94;;;2.95;62.13
64889;BME280;51386;53.082;8.816;2024-01-07T03:01:10;102072.66;;;2.94;62.36
64889;BME280;51386;53.082;8.816;2024-01-07T03:03:38;102078.59;;;2.96;62.82
64889;BME280;51386;53.082;8.816;2024-01-07T03:06:07;102087.78;;;3.01;63.01
64889;BME280;51386;53.082;8.816;2024-01-07T03:08:36;102083.22;;;3.05;62.64
64889;BME280;51386;53.082;8.816;2024-01-07T03:11:08;102086.38;;;3.10;62.53
64889;BME280;51386;53.082;8.816;2024-01-07T03:13:36;102081.19;;;3.10;61.73
64889;BME280;51386;53.082;8.816;2024-01-07T03:16:05;102078.78;;;3.07;61.65
64889;BME280;51386;53.082;8.816;2024-01-07T03:18:34;102086.78;;;3.04;61.23
64889;BME280;51386;53.082;8.816;2024-01-07T03:21:02;102085.19;;;3.01;61.62
64889;BME280;51386;53.082;8.816;2024-01-07T03:23:31;102090.47;;;3.00;61.30
64889;BME280;51386;53.082;8.816;2024-01-07T03:25:59;102087.88;;;3.00;61.66
64889;BME280;51386;53.082;8.816;2024-01-07T03:28:28;102095.66;;;3.00;61.10
64889;BME280;51386;53.082;8.816;2024-01-07T03:30:56;102094.84;;;2.99;61.24
64889;BME280;51386;53.082;8.816;2024-01-07T03:33:24;102097.34;;;3.01;61.03
64889;BME280;51386;53.082;8.816;2024-01-07T03:35:53;102090.28;;;3.03;61.17
64889;BME280;51386;53.082;8.816;2024-01-07T03:38:21;102102.38;;;3.04;60.69
64889;BME280;51386;53.082;8.816;2024-01-07T03:40:50;102104.41;;;2.99;60.23
64889;BME280;51386;53.082;8.816;2024-01-07T03:43:18;102102.94;;;2.95;60.91
64889;BME280;51386;53.082;8.816;2024-01-07T03:45:46;102104.59;;;2.96;60.83
64889;BME280;51386;53.082;8.816;2024-01-07T03:48:17;102100.34;;;2.95;60.38
64889;BME280;51386;53.082;8.816;2024-01-07T03:50:46;102115.00;;;2.96;60.33
64889;BME280;51386;53.082;8.816;2024-01-07T03:53:15;102109.78;;;2.96;60.14
64889;BME280;51386;53.082;8.816;2024-01-07T03:55:44;102119.34;;;2.95;60.51
64889;BME280;51386;53.082;8.816;2024-01-07T03:58:12;102120.38;;;2.93;60.08
64889;BME280;51386;53.082;8.816;2024-01-07T04:00:40;102113.50;;;2.92;60.41
64889;BME280;51386;53.082;8.816;2024-01-07T04:03:09;102118.72;;;2.92;60.42
64889;BME280;51386;53.082;8.816;2024-01-07T04:05:38;102123.91;;;2.92;59.87
64889;BME280;51386;53.082;8.816;2024-01-07T04:08:09;102126.59;;;2.90;60.16
64889;BME280;51386;53.082;8.816;2024-01-07T04:10:38;102143.03;;;2.91;60.21
64889;BME280;51386;53.082;8.816;2024-01-07T04:13:06;102139.50;;;2.92;60.09
64889;BME280;51386;53.082;8.816;2024-01-07T04:15:35;102137.06;;;2.89;59.60
64889;BME280;51386;53.082;8.816;2024-01-07T04:18:04;102136.34;;;2.87;59.54
64889;BME280;51386;53.082;8.816;2024-01-07T04:20:33;102152.09;;;2.84;59.72
64889;BME280;51386;53.082;8.816;2024-01-07T04:23:02;102153.78;;;2.85;59.79
64889;BME280;51386;53.082;8.816;2024-01-07T04:25:30;102151.94;;;2.87;59.92
64889;BME280;51386;53.082;8.816;2024-01-07T04:27:58;102157.13;;;2.87;59.71
64889;BME280;51386;53.082;8.816;2024-01-07T04:30:27;102160.47;;;2.89;59.99
64889;BME280;51386;53.082;8.816;2024-01-07T04:32:55;102158.44;;;2.94;59.81
64889;BME280;51386;53.082;8.816;2024-01-07T04:35:24;102162.63;;;2.96;59.66
64889;BME280;51386;53.082;8.816;2024-01-07T04:37:52;102177.28;;;2.97;59.71
64889;BME280;51386;53.082;8.816;2024-01-07T04:40:20;102173.13;;;2.95;59.04
64889;BME280;51386;53.082;8.816;2024-01-07T04:42:49;102180.38;;;2.90;59.17
64889;BME280;51386;53.082;8.816;2024-01-07T04:45:17;102182.38;;;2.85;58.88
64889;BME280;51386;53.082;8.816;2024-01-07T04:47:46;102184.41;;;2.80;59.09
64889;BME280;51386;53.082;8.816;2024-01-07T04:50:14;102195.81;;;2.77;59.73
64889;BME280;51386;53.082;8.816;2024-01-07T04:52:47;102192.53;;;2.73;59.34
64889;BME280;51386;53.082;8.816;2024-01-07T04:55:15;102195.41;;;2.69;59.15
64889;BME280;51386;53.082;8.816;2024-01-07T04:57:44;102206.91;;;2.65;59.30
64889;BME280;51386;53.082;8.816;2024-01-07T05:00:12;102207.34;;;2.57;59.32
64889;BME280;51386;53.082;8.816;2024-01-07T05:02:41;102212.06;;;2.51;59.54
64889;BME280;51386;53.082;8.816;2024-01-07T05:05:09;102212.50;;;2.43;59.53
64889;BME280;51386;53.082;8.816;2024-01-07T05:07:38;102222.28;;;2.38;59.63
64889;BME280;51386;53.082;8.816;2024-01-07T05:10:07;102219.09;;;2.33;60.03
64889;BME280;51386;53.082;8.816;2024-01-07T05:12:35;102228.00;;;2.29;59.92
64889;BME280;51386;53.082;8.816;2024-01-07T05:15:04;102233.34;;;2.26;60.03
64889;BME280;51386;53.082;8.816;2024-01-07T05:17:34;102234.28;;;2.25;60.52
64889;BME280;51386;53.082;8.816;2024-01-07T05:20:03;102243.94;;;2.23;60.25
64889;BME280;51386;53.082;8.816;2024-01-07T05:22:32;102241.41;;;2.22;60.40
64889;BME280;51386;53.082;8.816;2024-01-07T05:25:00;102250.13;;;2.21;60.53
64889;BME280;51386;53.082;8.816;2024-01-07T05:27:29;102261.53;;;2.18;60.34
64889;BME280;51386;53.082;8.816;2024-01-07T05:29:57;102265.19;;;2.14;60.59
64889;BME280;51386;53.082;8.816;2024-01-07T05:32:25;102273.91;;;2.13;60.48
64889;BME280;51386;53.082;8.816;2024-01-07T05:34:54;102281.69;;;2.13;60.68
64889;BME280;51386;53.082;8.816;2024-01-07T05:37:22;102274.75;;;2.14;60.42
64889;BME280;51386;53.082;8.816;2024-01-07T05:39:51;102280.94;;;2.11;60.16
64889;BME280;51386;53.082;8.816;2024-01-07T05:42:19;102289.66;;;2.10;60.55
64889;BME280;51386;53.082;8.816;2024-01-07T05:44:48;102289.56;;;2.12;60.67
64889;BME280;51386;53.082;8.816;2024-01-07T05:47:16;102298.19;;;2.12;60.24
64889;BME280;51386;53.082;8.816;2024-01-07T05:49:45;102291.16;;;2.14;60.48
64889;BME280;51386;53.082;8.816;2024-01-07T05:52:13;102296.19;;;2.17;60.38
64889;BME280;51386;53.082;8.816;2024-01-07T05:54:42;102300.22;;;2.23;60.52
64889;BME280;51386;53.082;8.816;2024-01-07T05:57:12;102305.91;;;2.29;60.49
64889;BME280;51386;53.082;8.816;2024-01-07T05:59:40;102299.47;;;2.36;60.49
64889;BME280;51386;53.082;8.816;2024-01-07T06:02:08;102299.91;;;2.44;60.08
64889;BME280;51386;53.082;8.816;2024-01-07T06:04:38;102309.19;;;2.48;59.94
64889;BME280;51386;53.082;8.816;2024-01-07T06:07:06;102318.31;;;2.55;59.52
64889;BME280;51386;53.082;8.816;2024-01-07T06:09:35;102316.31;;;2.60;59.82
64889;BME280;51386;53.082;8.816;2024-01-07T06:12:04;102320.50;;;2.63;59.68
64889;BME280;51386;53.082;8.816;2024-01-07T06:14:32;102323.00;;;2.64;59.48
64889;BME280;51386;53.082;8.816;2024-01-07T06:17:01;102337.44;;;2.70;59.66
64889;BME280;51386;53.082;8.816;2024-01-07T06:19:30;102337.03;;;2.78;59.50
64889;BME280;51386;53.082;8.816;2024-01-07T06:21:58;102339.25;;;2.84;59.73
64889;BME280;51386;53.082;8.816;2024-01-07T06:24:26;102335.41;;;2.91;59.54
64889;BME280;51386;53.082;8.816;2024-01-07T06:26:55;102344.63;;;2.96;59.27
64889;BME280;51386;53.082;8.816;2024-01-07T06:29:23;102343.47;;;3.02;59.11
64889;BME280;51386;53.082;8.816;2024-01-07T06:31:51;102347.38;;;3.09;59.43
64889;BME280;51386;53.082;8.816;2024-01-07T06:34:20;102361.88;;;3.13;58.70
64889;BME280;51386;53.082;8.816;2024-01-07T06:36:49;102359.19;;;3.14;58.74
64889;BME280;51386;53.082;8.816;2024-01-07T06:39:17;102356.31;;;3.19;58.41
64889;BME280;51386;53.082;8.816;2024-01-07T06:41:46;102357.25;;;3.18;58.63
64889;BME280;51386;53.082;8.816;2024-01-07T06:44:14;102365.22;;;3.15;58.69
64889;BME280;51386;53.082;8.816;2024-01-07T06:46:43;102373.78;;;3.17;58.87
64889;BME280;51386;53.082;8.816;2024-01-07T06:49:11;102369.25;;;3.20;59.09
64889;BME280;51386;53.082;8.816;2024-01-07T06:51:40;102368.25;;;3.23;58.70
64889;BME280;51386;53.082;8.816;2024-01-07T06:54:08;102370.66;;;3.26;58.68
64889;BME280;51386;53.082;8.816;2024-01-07T06:56:40;102372.34;;;3.27;58.80
64889;BME280;51386;53.082;8.816;2024-01-07T06:59:09;102368.63;;;3.31;58.85
64889;BME280;51386;53.082;8.816;2024-01-07T07:01:38;102370.16;;;3.35;58.73
64889;BME280;51386;53.082;8.816;2024-01-07T07:04:06;102376.00;;;3.38;58.90
64889;BME280;51386;53.082;8.816;2024-01-07T07:06:35;102379.28;;;3.42;58.78
64889;BME280;51386;53.082;8.816;2024-01-07T07:09:03;102385.22;;;3.44;58.88
64889;BME280;51386;53.082;8.816;2024-01-07T07:11:32;102388.69;;;3.45;58.38
64889;BME280;51386;53.082;8.816;2024-01-07T07:14:01;102390.44;;;3.44;58.46
64889;BME280;51386;53.082;8.816;2024-01-07T07:16:29;102403.50;;;3.42;58.47
64889;BME280;51386;53.082;8.816;2024-01-07T07:18:57;102401.84;;;3.41;58.19
64889;BME280;51386;53.082;8.816;2024-01-07T07:21:26;102407.97;;;3.40;58.65
64889;BME280;51386;53.082;8.816;2024-01-07T07:23:55;102406.97;;;3.43;58.74
64889;BME280;51386;53.082;8.816;2024-01-07T07:26:23;102415.50;;;3.45;58.62
64889;BME280;51386;53.082;8.816;2024-01-07T07:28:52;102417.09;;;3.48;58.71
64889;BME280;51386;53.082;8.816;2024-01-07T07:31:20;102420.44;;;3.50;58.34
64889;BME280;51386;53.082;8.816;2024-01-07T07:33:49;102425.44;;;3.54;58.74
64889;BME280;51386;53.082;8.816;2024-01-07T07:36:17;102431.97;;;3.61;58.93
64889;BME280;51386;53.082;8.816;2024-01-07T07:38:46;102427.50;;;3.63;58.82
64889;BME280;51386;53.082;8.816;2024-01-07T07:41:14;102431.75;;;3.64;58.29
64889;BME280;51386;53.082;8.816;2024-01-07T07:43:43;102438.66;;;3.65;58.77
64889;BME280;51386;53.082;8.816;2024-01-07T07:46:11;102438.28;;;3.71;58.60
64889;BME280;51386;53.082;8.816;2024-01-07T07:48:40;102438.13;;;3.74;58.31
64889;BME280;51386;53.082;8.816;2024-01-07T07:51:08;102440.63;;;3.76;58.36
64889;BME280;51386;53.082;8.816;2024-01-07T07:53:40;102447.41;;;3.78;58.68
64889;BME280;51386;53.082;8.816;2024-01-07T07:56:08;102443.00;;;3.80;58.30
64889;BME280;51386;53.082;8.816;2024-01-07T07:58:37;102449.84;;;3.81;58.38
64889;BME280;51386;53.082;8.816;2024-01-07T08:01:05;102449.84;;;3.81;58.40
64889;BME280;51386;53.082;8.816;2024-01-07T08:03:34;102458.41;;;3.83;58.01
64889;BME280;51386;53.082;8.816;2024-01-07T08:06:04;102456.75;;;3.82;57.68
64889;BME280;51386;53.082;8.816;2024-01-07T08:08:38;102460.25;;;3.81;57.98
64889;BME280;51386;53.082;8.816;2024-01-07T08:11:06;102474.13;;;3.82;57.81
64889;BME280;51386;53.082;8.816;2024-01-07T08:13:37;102475.16;;;3.79;57.90
64889;BME280;51386;53.082;8.816;2024-01-07T08:16:06;102481.25;;;3.78;57.75
64889;BME280;51386;53.082;8.816;2024-01-07T08:18:35;102482.97;;;3.79;57.96
64889;BME280;51386;53.082;8.816;2024-01-07T08:21:03;102482.78;;;3.82;57.91
64889;BME280;51386;53.082;8.816;2024-01-07T08:23:32;102483.53;;;3.84;57.67
64889;BME280;51386;53.082;8.816;2024-01-07T08:26:01;102487.78;;;3.85;57.43
64889;BME280;51386;53.082;8.816;2024-01-07T08:28:30;102482.59;;;3.85;57.78
64889;BME280;51386;53.082;8.816;2024-01-07T08:30:58;102488.66;;;3.86;57.69
64889;BME280;51386;53.082;8.816;2024-01-07T08:33:27;102488.56;;;3.87;57.54
64889;BME280;51386;53.082;8.816;2024-01-07T08:35:57;102496.88;;;3.94;57.75
64889;BME280;51386;53.082;8.816;2024-01-07T08:38:25;102502.56;;;4.00;57.55
64889;BME280;51386;53.082;8.816;2024-01-07T08:40:53;102504.03;;;4.04;57.83
64889;BME280;51386;53.082;8.816;2024-01-07T08:43:22;102512.44;;;4.09;57.48
64889;BME280;51386;53.082;8.816;2024-01-07T08:45:50;102506.94;;;4.14;57.78
64889;BME280;51386;53.082;8.816;2024-01-07T08:48:19;102513.41;;;4.23;57.60
64889;BME280;51386;53.082;8.816;2024-01-07T08:50:47;102520.97;;;4.27;57.42
64889;BME280;51386;53.082;8.816;2024-01-07T08:53:17;102527.56;;;4.33;57.39
64889;BME280;51386;53.082;8.816;2024-01-07T08:55:48;102527.38;;;4.36;57.41
64889;BME280;51386;53.082;8.816;2024-01-07T08:58:18;102536.69;;;4.40;57.33
64889;BME280;51386;53.082;8.816;2024-01-07T09:00:46;102541.56;;;4.46;57.18
64889;BME280;51386;53.082;8.816;2024-01-07T09:03:15;102546.59;;;4.49;56.85
64889;BME280;51386;53.082;8.816;2024-01-07T09:05:44;102546.78;;;4.46;56.51
64889;BME280;51386;53.082;8.816;2024-01-07T09:08:13;102539.06;;;4.44;56.81
64889;BME280;51386;53.082;8.816;2024-01-07T09:10:42;102547.69;;;4.45;56.81
64889;BME280;51386;53.082;8.816;2024-01-07T09:13:11;102546.94;;;4.43;57.15
64889;BME280;51386;53.082;8.816;2024-01-07T09:15:39;102548.47;;;4.47;56.94
64889;BME280;51386;53.082;8.816;2024-01-07T09:18:08;102547.34;;;4.51;57.08
64889;BME280;51386;53.082;8.816;2024-01-07T09:20:37;102553.13;;;4.56;57.10
64889;BME280;51386;53.082;8.816;2024-01-07T09:23:05;102549.41;;;4.60;56.90
64889;BME280;51386;53.082;8.816;2024-01-07T09:25:34;102556.09;;;4.64;56.68
64889;BME280;51386;53.082;8.816;2024-01-07T09:28:03;102559.66;;;4.63;56.66
64889;BME280;51386;53.082;8.816;2024-01-07T09:30:32;102565.78;;;4.62;56.72
64889;BME280;51386;53.082;8.816;2024-01-07T09:33:00;102562.06;;;4.66;56.92
64889;BME280;51386;53.082;8.816;2024-01-07T09:35:29;102563.84;;;4.65;56.54
64889;BME280;51386;53.082;8.816;2024-01-07T09:37:58;102568.38;;;4.62;56.88
64889;BME280;51386;53.082;8.816;2024-01-07T09:40:26;102566.72;;;4.61;56.79
64889;BME280;51386;53.082;8.816;2024-01-07T09:42:55;102572.22;;;4.56;56.85
64889;BME280;51386;53.082;8.816;2024-01-07T09:45:25;102570.81;;;4.51;57.02
64889;BME280;51386;53.082;8.816;2024-01-07T09:47:54;102572.84;;;4.46;57.03
64889;BME280;51386;53.082;8.816;2024-01-07T09:50:23;102572.44;;;4.38;57.46
64889;BME280;51386;53.082;8.816;2024-01-07T09:52:56;102579.78;;;4.31;57.74
64889;BME280;51386;53.082;8.816;2024-01-07T09:55:38;102570.72;;;4.23;57.88
64889;BME280;51386;53.082;8.816;2024-01-07T09:58:08;102575.94;;;4.23;58.29
64889;BME280;51386;53.082;8.816;2024-01-07T10:00:37;102578.56;;;4.23;58.26
64889;BME280;51386;53.082;8.816;2024-01-07T10:03:07;102577.81;;;4.21;58.68
64889;BME280;51386;53.082;8.816;2024-01-07T10:05:35;102588.28;;;4.19;58.60
64889;BME280;51386;53.082;8.816;2024-01-07T10:08:04;102588.41;;;4.18;58.96
64889;BME280;51386;53.082;8.816;2024-01-07T10:10:35;102590.06;;;4.19;59.21
64889;BME280;51386;53.082;8.816;2024-01-07T10:13:04;102587.13;;;4.25;59.81
64889;BME280;51386;53.082;8.816;2024-01-07T10:15:32;102595.00;;;4.53;59.78
64889;BME280;51386;53.082;8.816;2024-01-07T10:18:05;102591.53;;;5.10;59.76
64889;BME280;51386;53.082;8.816;2024-01-07T10:20:35;102597.03;;;5.89;59.39
64889;BME280;51386;53.082;8.816;2024-01-07T10:23:06;102602.44;;;6.64;57.87
64889;BME280;51386;53.082;8.816;2024-01-07T10:25:36;102594.94;;;7.10;56.04
64889;BME280;51386;53.082;8.816;2024-01-07T10:28:05;102597.94;;;7.17;54.60
64889;BME280;51386;53.082;8.816;2024-01-07T10:30:34;102599.75;;;6.91;53.59
64889;BME280;51386;53.082;8.816;2024-01-07T10:33:03;102597.34;;;6.63;54.01
64889;BME280;51386;53.082;8.816;2024-01-07T10:35:35;102599.69;;;6.41;54.41
64889;BME280;51386;53.082;8.816;2024-01-07T10:38:04;102600.47;;;6.16;54.46
64889;BME280;51386;53.082;8.816;2024-01-07T10:40:33;102592.25;;;5.95;55.07
64889;BME280;51386;53.082;8.816;2024-01-07T10:43:02;102595.47;;;5.72;55.02
64889;BME280;51386;53.082;8.816;2024-01-07T10:45:31;102596.72;;;5.53;55.50
64889;BME280;51386;53.082;8.816;2024-01-07T10:48:04;102589.81;;;5.37;55.81
64889;BME280;51386;53.082;8.816;2024-01-07T10:50:40;102590.50;;;5.27;56.33
64889;BME280;51386;53.082;8.816;2024-01-07T10:53:18;102596.56;;;5.13;56.39
64889;BME280;51386;53.082;8.816;2024-01-07T10:56:03;102597.59;;;4.97;56.70
64889;BME280;51386;53.082;8.816;2024-01-07T10:58:36;102597.56;;;4.82;57.13
64889;BME280;51386;53.082;8.816;2024-01-07T11:01:06;102604.00;;;4.77;57.40
64889;BME280;51386;53.082;8.816;2024-01-07T11:06:35;102608.44;;;4.61;57.87
64889;BME280;51386;53.082;8.816;2024-01-07T11:09:36;102603.56;;;4.55;58.02
64889;BME280;51386;53.082;8.816;2024-01-07T11:12:07;102605.34;;;4.54;58.17
64889;BME280;51386;53.082;8.816;2024-01-07T11:14:41;102603.56;;;4.55;58.47
64889;BME280;51386;53.082;8.816;2024-01-07T11:17:13;102608.78;;;4.55;58.30
64889;BME280;51386;53.082;8.816;2024-01-07T11:19:51;102609.53;;;4.57;58.56
64889;BME280;51386;53.082;8.816;2024-01-07T11:22:27;102605.84;;;4.61;58.71
64889;BME280;51386;53.082;8.816;2024-01-07T11:25:00;102604.88;;;4.62;58.38
64889;BME280;51386;53.082;8.816;2024-01-07T11:27:30;102603.50;;;4.56;58.16
64889;BME280;51386;53.082;8.816;2024-01-07T11:30:18;102608.03;;;4.53;58.50
64889;BME280;51386;53.082;8.816;2024-01-07T11:32:47;102609.63;;;4.55;58.63
64889;BME280;51386;53.082;8.816;2024-01-07T11:35:54;102612.34;;;4.54;58.57
64889;BME280;51386;53.082;8.816;2024-01-07T11:38:27;102612.50;;;4.51;58.12
64889;BME280;51386;53.082;8.816;2024-01-07T11:40:56;102610.16;;;4.46;58.22
64889;BME280;51386;53.082;8.816;2024-01-07T11:43:25;102618.31;;;4.56;58.81
64889;BME280;51386;53.082;8.816;2024-01-07T11:45:54;102617.78;;;5.35;59.65
64889;BME280;51386;53.082;8.816;2024-01-07T11:48:23;102615.03;;;7.10;57.52
64889;BME280;51386;53.082;8.816;2024-01-07T11:50:51;102609.25;;;8.26;53.66
64889;BME280;51386;53.082;8.816;2024-01-07T11:53:22;102612.28;;;8.90;51.47
64889;BME280;51386;53.082;8.816;2024-01-07T11:55:51;102612.66;;;9.18;50.29
64889;BME280;51386;53.082;8.816;2024-01-07T11:58:20;102609.63;;;9.78;49.77
64889;BME280;51386;53.082;8.816;2024-01-07T12:00:48;102610.88;;;10.58;48.61
64889;BME280;51386;53.082;8.816;2024-01-07T12:03:18;102614.00;;;11.14;45.95
64889;BME280;51386;53.082;8.816;2024-01-07T12:05:47;102613.34;;;11.22;44.84
64889;BME280;51386;53.082;8.816;2024-01-07T12:08:16;102608.56;;;11.55;44.35
64889;BME280;51386;53.082;8.816;2024-01-07T12:10:44;102611.00;;;11.68;44.21
64889;BME280;51386;53.082;8.816;2024-01-07T12:13:13;102615.25;;;11.20;42.53
64889;BME280;51386;53.082;8.816;2024-01-07T12:15:43;102617.06;;;10.68;43.01
64889;BME280;51386;53.082;8.816;2024-01-07T12:18:11;102612.56;;;10.59;44.13
64889;BME280;51386;53.082;8.816;2024-01-07T12:20:40;102617.59;;;10.62;43.22
64889;BME280;51386;53.082;8.816;2024-01-07T12:23:09;102625.59;;;10.40;42.83
64889;BME280;51386;53.082;8.816;2024-01-07T12:25:38;102618.03;;;10.15;43.03
64889;BME280;51386;53.082;8.816;2024-01-07T12:28:07;102627.09;;;9.68;43.32
64889;BME280;51386;53.082;8.816;2024-01-07T12:30:35;102629.50;;;9.16;44.09
64889;BME280;51386;53.082;8.816;2024-01-07T12:33:05;102621.19;;;8.65;45.00
64889;BME280;51386;53.082;8.816;2024-01-07T12:35:34;102631.28;;;8.24;45.82
64889;BME280;51386;53.082;8.816;2024-01-07T12:38:05;102625.13;;;7.88;46.26
64889;BME280;51386;53.082;8.816;2024-01-07T12:40:33;102633.28;;;7.60;46.86
64889;BME280;51386;53.082;8.816;2024-01-07T12:43:03;102629.25;;;7.31;47.44
64889;BME280;51386;53.082;8.816;2024-01-07T12:45:32;102627.59;;;7.05;48.23
64889;BME280;51386;53.082;8.816;2024-01-07T12:48:00;102627.38;;;6.82;48.64
64889;BME280;51386;53.082;8.816;2024-01-07T12:50:30;102626.09;;;6.63;49.29
64889;BME280;51386;53.082;8.816;2024-01-07T12:52:59;102633.97;;;6.63;49.15
64889;BME280;51386;53.082;8.816;2024-01-07T12:55:27;102628.97;;;6.33;49.06
64889;BME280;51386;53.082;8.816;2024-01-07T12:57:58;102634.41;;;6.03;49.73
64889;BME280;51386;53.082;8.816;2024-01-07T13:00:29;102636.84;;;5.78;50.17
64889;BME280;51386;53.082;8.816;2024-01-07T13:02:58;102637.16;;;5.60;50.82
64889;BME280;51386;53.082;8.816;2024-01-07T13:05:27;102639.63;;;5.48;51.32
64889;BME280;51386;53.082;8.816;2024-01-07T13:07:57;102641.69;;;5.43;51.88
64889;BME280;51386;53.082;8.816;2024-01-07T13:10:25;102638.22;;;5.43;52.12
64889;BME280;51386;53.082;8.816;2024-01-07T13:12:55;102639.91;;;5.44;52.11